logo tempoitalia

Diretta Meteo Battle Mtn, Stati Uniti (USA)domenica 30 agosto ore 23:35

Mappa
Sereno 13 °C Sereno 24 Ore: T.min 7 T.max 30
Ponente Nord Km/h 0 Punto di rugiada: -4 °C Umidità: 30% Visibilità: 10 Km
Il sole sorge alle: 06:13 Il sole tramonta alle: 19:23
30 Agosto 2026 23:35 tempo osservato: Sereno Sereno 13 30 1017 vento: Nord N 0
30 Agosto 2026 23:15 tempo osservato: Sereno Sereno 12 30 1018 vento: Nord E 11.1
30 Agosto 2026 22:55 tempo osservato: Sereno Sereno 12 30 1017 vento: Nord N 0
30 Agosto 2026 22:35 tempo osservato: Sereno Sereno 13 28 1018 vento: Nord N 0
30 Agosto 2026 22:15 tempo osservato: Sereno Sereno 15 28 1017 vento: Nord N 0
30 Agosto 2026 21:55 tempo osservato: Sereno Sereno 18 25 1017 vento: Nord N 0
30 Agosto 2026 21:35 tempo osservato: Sereno Sereno 18 23 1017 vento: Nord N 0
30 Agosto 2026 21:15 tempo osservato: Sereno Sereno 21 21 1017 vento: Nord NO 13
30 Agosto 2026 20:55 tempo osservato: Sereno Sereno 20 22 1017 vento: Nord NO 14.8
30 Agosto 2026 20:35 tempo osservato: Sereno Sereno 21 21 1017 vento: Nord N/NO 13
30 Agosto 2026 20:15 tempo osservato: Sereno Sereno 22 19 1016 vento: Nord N/NO 14.8
30 Agosto 2026 19:55 tempo osservato: Sereno Sereno 23 18 1016 vento: Nord N/NO 14.8
30 Agosto 2026 19:35 tempo osservato: Sereno Sereno 24 17 1016 vento: Nord NO 11.1
30 Agosto 2026 19:15 tempo osservato: Sereno Sereno 26 15 1016 vento: Nord N/NO 9.3
30 Agosto 2026 18:55 tempo osservato: Sereno Sereno 27 14 1016 vento: Nord N 11.1
30 Agosto 2026 18:35 tempo osservato: Sereno Sereno 28 12 1016 vento: Nord N 9.3
30 Agosto 2026 18:15 tempo osservato: Sereno Sereno 28 12 1016 vento: Nord N 13
30 Agosto 2026 17:55 tempo osservato: Sereno Sereno 28 12 1016 vento: Nord N/NO 13
30 Agosto 2026 17:35 tempo osservato: Sereno Sereno 29 12 1016 vento: Nord N/NO 14.8
30 Agosto 2026 17:15 tempo osservato: Sereno Sereno 29 13 1016 vento: Nord N 9.3
30 Agosto 2026 16:55 tempo osservato: Sereno Sereno 29 13 1016 vento: Nord N 9.3
30 Agosto 2026 16:35 tempo osservato: Sereno Sereno 30 11 1016 vento: Nord N/NE 9.3
30 Agosto 2026 16:15 tempo osservato: Sereno Sereno 30 11 1016 vento: Nord N 14.8
30 Agosto 2026 15:55 tempo osservato: Sereno Sereno 30 9 1017 vento: Nord O/SO 13
30 Agosto 2026 15:35 tempo osservato: Sereno Sereno 30 9 1017 vento: Nord O 14.8
30 Agosto 2026 15:15 tempo osservato: Sereno Sereno 29 10 1017 vento: Nord O 16.7
30 Agosto 2026 14:55 tempo osservato: Sereno Sereno 30 9 1017 vento: Nord SO 14.8
30 Agosto 2026 14:35 tempo osservato: Sereno Sereno 28 10 1018 vento: Nord S/SO 11.1
30 Agosto 2026 14:15 tempo osservato: Sereno Sereno 28 11 1018 vento: Nord N/NO 11.1
30 Agosto 2026 13:55 tempo osservato: Sereno Sereno 28 11 1018 vento: Nord S/SO 7.4
30 Agosto 2026 13:35 tempo osservato: Sereno Sereno 27 11 1018 vento: Nord N 5.5
30 Agosto 2026 13:15 tempo osservato: Sereno Sereno 27 12 1019 vento: Nord N 5.5
30 Agosto 2026 12:55 tempo osservato: Sereno Sereno 26 14 1019 vento: Nord S 9.3
30 Agosto 2026 12:35 tempo osservato: Sereno Sereno 26 14 1019 vento: Nord O 11.1
30 Agosto 2026 12:15 tempo osservato: Sereno Sereno 26 16 1019 vento: Nord S/SO 11.1
30 Agosto 2026 11:55 tempo osservato: Sereno Sereno 25 17 1019 vento: Nord O 7.4
30 Agosto 2026 11:35 tempo osservato: Sereno Sereno 24 20 1020 vento: Nord N 5.5
30 Agosto 2026 11:15 tempo osservato: Sereno Sereno 23 21 1020 vento: Nord N 5.5
30 Agosto 2026 10:55 tempo osservato: Sereno Sereno 23 21 1020 vento: Nord N 0
30 Agosto 2026 10:35 tempo osservato: Sereno Sereno 22 24 1020 vento: Nord N 5.5
30 Agosto 2026 10:15 tempo osservato: Sereno Sereno 21 24 1020 vento: Nord N 5.5
30 Agosto 2026 09:55 tempo osservato: Sereno Sereno 20 26 1020 vento: Nord N 0
30 Agosto 2026 09:35 tempo osservato: Sereno Sereno 20 26 1020 vento: Nord N 0
30 Agosto 2026 09:15 tempo osservato: Sereno Sereno 18 29 1020 vento: Nord N/NO 7.4
30 Agosto 2026 08:55 tempo osservato: Sereno Sereno 18 29 1020 vento: Nord N 9.3
30 Agosto 2026 08:35 tempo osservato: Sereno Sereno 17 31 1020 vento: Nord N 5.5
30 Agosto 2026 08:15 tempo osservato: Sereno Sereno 16 33 1020 vento: Nord N 5.5
30 Agosto 2026 07:55 tempo osservato: Sereno Sereno 14 35 1020 vento: Nord N 0
30 Agosto 2026 07:35 tempo osservato: Sereno Sereno 13 37 1020 vento: Nord N 0
30 Agosto 2026 07:15 tempo osservato: Sereno Sereno 12 37 1020 vento: Nord N 0
30 Agosto 2026 06:55 tempo osservato: Sereno Sereno 10 42 1019 vento: Nord N 5.5
30 Agosto 2026 06:35 tempo osservato: Sereno Sereno 7 52 1019 vento: Nord E/NE 7.4
30 Agosto 2026 06:15 tempo osservato: Sereno Sereno 8 49 1019 vento: Nord E/NE 7.4
30 Agosto 2026 05:55 tempo osservato: Sereno Sereno 9 45 1019 vento: Nord E 7.4
30 Agosto 2026 05:35 tempo osservato: Sereno Sereno 10 42 1019 vento: Nord N 0
30 Agosto 2026 05:15 tempo osservato: Sereno Sereno 10 46 1018 vento: Nord N 5.5
30 Agosto 2026 04:55 tempo osservato: Sereno Sereno 13 37 1018 vento: Nord N/NO 9.3
30 Agosto 2026 04:35 tempo osservato: Sereno Sereno 13 37 1018 vento: Nord N/NO 14.8
30 Agosto 2026 04:15 tempo osservato: Sereno Sereno 12 43 1018 vento: Nord N/NE 7.4
30 Agosto 2026 03:55 tempo osservato: Sereno Sereno 10 46 1018 vento: Nord N 0
30 Agosto 2026 03:35 tempo osservato: Sereno Sereno 13 40 1018 vento: Nord N 0
30 Agosto 2026 03:15 tempo osservato: Sereno Sereno 12 40 1018 vento: Nord N 5.5
30 Agosto 2026 02:55 tempo osservato: Sereno Sereno 15 35 1017 vento: Nord N 9.3
30 Agosto 2026 02:35 tempo osservato: Sereno Sereno 14 38 1017 vento: Nord O/NO 14.8
30 Agosto 2026 02:15 tempo osservato: Sereno Sereno 13 37 1017 vento: Nord O 11.1
30 Agosto 2026 01:55 tempo osservato: Sereno Sereno 15 33 1017 vento: Nord N 0
30 Agosto 2026 01:35 tempo osservato: Sereno Sereno 15 35 1017 vento: Nord O 7.4
30 Agosto 2026 01:15 tempo osservato: Sereno Sereno 17 31 1017 vento: Nord SO 16.7
30 Agosto 2026 00:55 tempo osservato: Sereno Sereno 16 33 1017 vento: Nord S/SO 9.3
30 Agosto 2026 00:35 tempo osservato: Sereno Sereno 15 35 1017 vento: Nord N 5.5
30 Agosto 2026 00:15 tempo osservato: Sereno Sereno 16 33 1017 vento: Nord N 5.5
29 Agosto 2026 23:55 tempo osservato: Sereno Sereno 15 38 1016 vento: Nord O/SO 9.3
29 Agosto 2026 23:35 tempo osservato: Sereno Sereno 14 44 1016 vento: Nord SO 7.4